Time;durP1;ratioP1;P1;durP2;ratioP2;P2;SDS_P1;SDS_P2;PMS_P1;PMS_P2;Temp;Humidity;BMP_temperature;BMP_pressure;BME280_temperature;BME280_humidity;BME280_pressure;Samples;Min_cycle;Max_cycle;Signal;HPM_P1;HPM_P2
2022/04/03 00:00:01;;;;;;;;;;;;;;;;;;5023136;28;19957;-82
2022/04/03 00:02:27;;;;;;;;;;;;;;;;;;4980936;28;19914;-82
2022/04/03 00:04:54;;;;;;;;;;;;;;;;;;5014050;28;19949;-82
2022/04/03 00:07:20;;;;;;;;;;;;;;;;;;5016947;28;19941;-84
2022/04/03 00:09:46;;;;;;;;;;;;;;;;;;5004948;28;19956;-79
2022/04/03 00:12:12;;;;;;;;;;;;;;;;;;5019188;28;19941;-83
2022/04/03 00:14:38;;;;;;;;;;;;;;;;;;5011396;28;20071;-83
2022/04/03 00:17:05;;;;;;;;;;;;;;;;;;4995831;28;19957;-83
2022/04/03 00:19:31;;;;;;;;;;;;;;;;;;5015696;28;19960;-83
2022/04/03 00:21:57;;;;;;;;;;;;;;;;;;5013422;28;19960;-82
2022/04/03 00:24:23;;;;;;;;;;;;;;;;;;5013270;28;19960;-83
2022/04/03 00:26:49;;;;;;;;;;;;;;;;;;5004922;28;20351;-82
2022/04/03 00:29:16;;;;;;;;;;;;;;;;;;5013021;28;19976;-82
2022/04/03 00:31:42;;;;;;;;;;;;;;;;;;5010530;28;19918;-82
2022/04/03 00:34:08;;;;;;;;;;;;;;;;;;5023107;28;19948;-82
2022/04/03 00:36:34;;;;;;;;;;;;;;;;;;5006509;28;19959;-82
2022/04/03 00:39:00;;;;;;;;;;;;;;;;;;5004947;28;19945;-82
2022/04/03 00:41:27;;;;;;;;;;;;;;;;;;5006304;28;19961;-82
2022/04/03 00:43:53;;;;;;;;;;;;;;;;;;5005364;28;19961;-81
2022/04/03 00:46:19;;;;;;;;;;;;;;;;;;5010293;28;19961;-82
2022/04/03 00:48:47;;;;;;;;;;;;;;;;;;5015101;28;20627;-82
2022/04/03 00:51:13;;;;;;;;;;;;;;;;;;5021505;28;20390;-82
2022/04/03 00:53:39;;;;;;;;;;;;;;;;;;5011488;28;19960;-82
2022/04/03 00:56:05;;;;;;;;;;;;;;;;;;4999196;28;20493;-83
2022/04/03 00:58:31;;;;;;;;;;;;;;;;;;5005203;28;19961;-83
2022/04/03 01:00:58;;;;;;;;;;;;;;;;;;5005216;28;19953;-83
2022/04/03 01:03:24;;;;;;;;;;;;;;;;;;5011306;28;20377;-83
2022/04/03 01:05:50;;;;;;;;;;;;;;;;;;5004907;28;19953;-82
2022/04/03 01:08:18;;;;;;;;;;;;;;;;;;5006702;28;19960;-83
2022/04/03 01:10:44;;;;;;;;;;;;;;;;;;5001819;28;19960;-82
2022/04/03 01:13:10;;;;;;;;;;;;;;;;;;5016940;28;19945;-83
2022/04/03 01:15:36;;;;;;;;;;;;;;;;;;5007315;28;19949;-83
2022/04/03 01:18:03;;;;;;;;;;;;;;;;;;5013867;28;19956;-81
2022/04/03 01:20:29;;;;;;;;;;;;;;;;;;5015075;28;19963;-81
2022/04/03 01:22:56;;;;;;;;;;;;;;;;;;4997516;28;19965;-81
2022/04/03 01:25:22;;;;;;;;;;;;;;;;;;5009651;28;19913;-81
2022/04/03 01:27:48;;;;;;;;;;;;;;;;;;5006699;28;19965;-82
2022/04/03 01:30:14;;;;;;;;;;;;;;;;;;5005877;28;19957;-82
2022/04/03 01:32:41;;;;;;;;;;;;;;;;;;5010074;28;19921;-82
2022/04/03 01:35:07;;;;;;;;;;;;;;;;;;5014160;28;19972;-81
2022/04/03 01:37:33;;;;;;;;;;;;;;;;;;5006128;28;19948;-82
2022/04/03 01:39:59;;;;;;;;;;;;;;;;;;5008988;28;20378;-82
2022/04/03 01:42:25;;;;;;;;;;;;;;;;;;5012134;28;19964;-82
2022/04/03 01:44:52;;;;;;;;;;;;;;;;;;5016572;28;19917;-82
2022/04/03 01:47:18;;;;;;;;;;;;;;;;;;5005820;28;19949;-81
2022/04/03 01:49:44;;;;;;;;;;;;;;;;;;5003561;28;19976;-79
2022/04/03 01:52:10;;;;;;;;;;;;;;;;;;5021713;28;19949;-82
2022/04/03 01:54:37;;;;;;;;;;;;;;;;;;5024281;28;20015;-81
2022/04/03 01:57:03;;;;;;;;;;;;;;;;;;5013558;28;19976;-82
2022/04/03 01:59:29;;;;;;;;;;;;;;;;;;5019466;28;20377;-83
2022/04/03 02:01:55;;;;;;;;;;;;;;;;;;5013672;28;19952;-83
2022/04/03 02:04:21;;;;;;;;;;;;;;;;;;5001859;28;20363;-83
2022/04/03 02:06:48;;;;;;;;;;;;;;;;;;5008404;28;19946;-82
2022/04/03 02:09:14;;;;;;;;;;;;;;;;;;5001442;28;19961;-82
2022/04/03 02:11:40;;;;;;;;;;;;;;;;;;5016555;28;20498;-82
2022/04/03 02:14:07;;;;;;;;;;;;;;;;;;5014718;28;20495;-82
2022/04/03 02:16:34;;;;;;;;;;;;;;;;;;5018205;28;19964;-81
2022/04/03 02:19:00;;;;;;;;;;;;;;;;;;5005416;28;19949;-81
2022/04/03 02:21:26;;;;;;;;;;;;;;;;;;5003706;28;19949;-83
2022/04/03 02:23:52;;;;;;;;;;;;;;;;;;5015563;28;19949;-82
2022/04/03 02:26:19;;;;;;;;;;;;;;;;;;5001421;28;19957;-82
2022/04/03 02:28:45;;;;;;;;;;;;;;;;;;5027390;28;20009;-83
2022/04/03 02:31:11;;;;;;;;;;;;;;;;;;4997961;28;20358;-83
2022/04/03 02:33:37;;;;;;;;;;;;;;;;;;5016786;28;19917;-83
2022/04/03 02:36:04;;;;;;;;;;;;;;;;;;5018369;28;19945;-82
2022/04/03 02:38:30;;;;;;;;;;;;;;;;;;5011934;28;20353;-82
2022/04/03 02:40:56;;;;;;;;;;;;;;;;;;5001202;28;19960;-81
2022/04/03 02:43:23;;;;;;;;;;;;;;;;;;5011933;28;20023;-82
2022/04/03 02:45:49;;;;;;;;;;;;;;;;;;5005438;28;19960;-82
2022/04/03 02:48:16;;;;;;;;;;;;;;;;;;5002316;28;19968;-82
2022/04/03 02:50:42;;;;;;;;;;;;;;;;;;5022525;28;19964;-82
2022/04/03 02:53:08;;;;;;;;;;;;;;;;;;5017033;28;20015;-82
2022/04/03 02:55:34;;;;;;;;;;;;;;;;;;5009884;28;19956;-81
2022/04/03 02:58:01;;;;;;;;;;;;;;;;;;5016933;28;20407;-81
2022/04/03 03:00:27;;;;;;;;;;;;;;;;;;5007248;28;19963;-81
2022/04/03 03:02:53;;;;;;;;;;;;;;;;;;5013824;28;19949;-81
2022/04/03 03:05:19;;;;;;;;;;;;;;;;;;5004500;28;19964;-82
2022/04/03 03:07:46;;;;;;;;;;;;;;;;;;5019661;28;19913;-80
2022/04/03 03:10:12;;;;;;;;;;;;;;;;;;5019034;28;20054;-83
2022/04/03 03:12:38;;;;;;;;;;;;;;;;;;5006718;28;19964;-82
2022/04/03 03:15:04;;;;;;;;;;;;;;;;;;5018973;28;19949;-82
2022/04/03 03:17:31;;;;;;;;;;;;;;;;;;5006306;28;19974;-82
2022/04/03 03:19:58;;;;;;;;;;;;;;;;;;5027764;28;19952;-82
2022/04/03 03:22:24;;;;;;;;;;;;;;;;;;5014999;28;19960;-82
2022/04/03 03:24:50;;;;;;;;;;;;;;;;;;5011866;28;19943;-82
2022/04/03 03:27:16;;;;;;;;;;;;;;;;;;5009923;28;19971;-82
2022/04/03 03:29:43;;;;;;;;;;;;;;;;;;4999057;28;19926;-83
2022/04/03 03:32:09;;;;;;;;;;;;;;;;;;5008914;28;19953;-82
2022/04/03 03:34:35;;;;;;;;;;;;;;;;;;5005669;28;19964;-82
2022/04/03 03:37:01;;;;;;;;;;;;;;;;;;5015846;28;19949;-82
2022/04/03 03:39:28;;;;;;;;;;;;;;;;;;5005929;28;19941;-82
2022/04/03 03:41:55;;;;;;;;;;;;;;;;;;5021835;28;19968;-82
2022/04/03 03:44:21;;;;;;;;;;;;;;;;;;5020056;28;19949;-82
2022/04/03 03:46:47;;;;;;;;;;;;;;;;;;5000632;28;19945;-82
2022/04/03 03:49:14;;;;;;;;;;;;;;;;;;5010750;28;20278;-82
2022/04/03 03:51:40;;;;;;;;;;;;;;;;;;5015821;28;19917;-82
2022/04/03 03:54:06;;;;;;;;;;;;;;;;;;5004798;28;20004;-82
2022/04/03 03:56:32;;;;;;;;;;;;;;;;;;5004470;28;19956;-83
2022/04/03 03:58:59;;;;;;;;;;;;;;;;;;5014909;28;19936;-83
2022/04/03 04:01:25;;;;;;;;;;;;;;;;;;5017728;28;19918;-83
2022/04/03 04:03:51;;;;;;;;;;;;;;;;;;5004727;28;19958;-82
2022/04/03 04:06:17;;;;;;;;;;;;;;;;;;5016534;28;19937;-83
2022/04/03 04:08:44;;;;;;;;;;;;;;;;;;5008150;28;19956;-83
2022/04/03 04:11:10;;;;;;;;;;;;;;;;;;5013431;28;19955;-82
2022/04/03 04:13:36;;;;;;;;;;;;;;;;;;5006514;28;19949;-82
2022/04/03 04:16:02;;;;;;;;;;;;;;;;;;5016682;28;20318;-82
2022/04/03 04:18:29;;;;;;;;;;;;;;;;;;5009396;28;19960;-82
2022/04/03 04:20:56;;;;;;;;;;;;;;;;;;5018936;28;19941;-82
2022/04/03 04:23:22;;;;;;;;;;;;;;;;;;5017157;28;19945;-82
2022/04/03 04:25:48;;;;;;;;;;;;;;;;;;5002157;28;19957;-82
2022/04/03 04:28:14;;;;;;;;;;;;;;;;;;5002861;28;19945;-82
2022/04/03 04:30:40;;;;;;;;;;;;;;;;;;5020764;28;20364;-82
2022/04/03 04:33:07;;;;;;;;;;;;;;;;;;5010522;28;19988;-82
2022/04/03 04:35:33;;;;;;;;;;;;;;;;;;5020224;28;19945;-82
2022/04/03 04:37:59;;;;;;;;;;;;;;;;;;5005582;28;19957;-82
2022/04/03 04:40:25;;;;;;;;;;;;;;;;;;5009272;28;20370;-81
2022/04/03 04:42:51;;;;;;;;;;;;;;;;;;5022616;28;19961;-81
2022/04/03 04:45:18;;;;;;;;;;;;;;;;;;5001739;28;19917;-81
2022/04/03 04:47:44;;;;;;;;;;;;;;;;;;4990880;28;19961;-82
2022/04/03 04:50:11;;;;;;;;;;;;;;;;;;5010369;28;20007;-81
2022/04/03 04:52:37;;;;;;;;;;;;;;;;;;4996681;28;20639;-82
2022/04/03 04:55:06;;;;;;;;;;;;;;;;;;5009907;28;20372;-81
2022/04/03 04:57:32;;;;;;;;;;;;;;;;;;5003260;28;19965;-82
2022/04/03 04:59:58;;;;;;;;;;;;;;;;;;4998952;28;20029;-82
2022/04/03 05:02:24;;;;;;;;;;;;;;;;;;5022544;28;20381;-82
2022/04/03 05:04:51;;;;;;;;;;;;;;;;;;4995425;28;20019;-81
2022/04/03 05:07:17;;;;;;;;;;;;;;;;;;4987305;28;19953;-81
2022/04/03 05:09:43;;;;;;;;;;;;;;;;;;5014331;28;19960;-82
2022/04/03 05:12:09;;;;;;;;;;;;;;;;;;5016319;28;19968;-82
2022/04/03 05:14:37;;;;;;;;;;;;;;;;;;5007009;28;20386;-82
2022/04/03 05:17:03;;;;;;;;;;;;;;;;;;5017767;28;19959;-80
2022/04/03 05:19:29;;;;;;;;;;;;;;;;;;5020555;28;19976;-83
2022/04/03 05:21:55;;;;;;;;;;;;;;;;;;5010378;28;19914;-81
2022/04/03 05:24:21;;;;;;;;;;;;;;;;;;5017437;28;19945;-82
2022/04/03 05:26:48;;;;;;;;;;;;;;;;;;5018301;28;19945;-83
2022/04/03 05:29:14;;;;;;;;;;;;;;;;;;5014376;28;19953;-81
2022/04/03 05:31:40;;;;;;;;;;;;;;;;;;5024179;28;19948;-80
2022/04/03 05:34:08;;;;;;;;;;;;;;;;;;5007718;28;19960;-82
2022/04/03 05:36:36;;;;;;;;;;;;;;;;;;5014846;28;20363;-83
2022/04/03 05:39:05;;;;;;;;;;;;;;;;;;5023796;28;19976;-82
2022/04/03 05:41:31;;;;;;;;;;;;;;;;;;5016658;28;19922;-83
2022/04/03 05:43:58;;;;;;;;;;;;;;;;;;4981607;28;19953;-82
2022/04/03 05:46:24;;;;;;;;;;;;;;;;;;5016542;28;20344;-83
2022/04/03 05:48:50;;;;;;;;;;;;;;;;;;5024913;28;19952;-81
2022/04/03 05:51:16;;;;;;;;;;;;;;;;;;5016441;28;20022;-82
2022/04/03 05:53:43;;;;;;;;;;;;;;;;;;5021434;28;19956;-82
2022/04/03 05:56:09;;;;;;;;;;;;;;;;;;4982127;28;20377;-83
2022/04/03 05:58:35;;;;;;;;;;;;;;;;;;5008030;28;19960;-83
2022/04/03 06:01:02;;;;;;;;;;;;;;;;;;4998063;28;20039;-83
2022/04/03 06:03:28;;;;;;;;;;;;;;;;;;4996523;28;20556;-84
2022/04/03 06:05:54;;;;;;;;;;;;;;;;;;5012035;28;20421;-83
2022/04/03 06:08:20;;;;;;;;;;;;;;;;;;4996201;28;19950;-83
2022/04/03 06:10:47;;;;;;;;;;;;;;;;;;5012804;28;19930;-80
2022/04/03 06:13:13;;;;;;;;;;;;;;;;;;5014695;28;19960;-82
2022/04/03 06:15:40;;;;;;;;;;;;;;;;;;4999105;28;19960;-82
2022/04/03 06:18:06;;;;;;;;;;;;;;;;;;5010591;28;19967;-82
2022/04/03 06:20:32;;;;;;;;;;;;;;;;;;4995311;28;19972;-82
2022/04/03 06:22:59;;;;;;;;;;;;;;;;;;4998572;28;19967;-83
2022/04/03 06:25:25;;;;;;;;;;;;;;;;;;5001349;28;19965;-83
2022/04/03 06:27:51;;;;;;;;;;;;;;;;;;5015151;28;19995;-81
2022/04/03 06:30:17;;;;;;;;;;;;;;;;;;4999238;28;19976;-82
2022/04/03 06:32:44;;;;;;;;;;;;;;;;;;5018532;28;19952;-82
2022/04/03 06:35:10;;;;;;;;;;;;;;;;;;5007712;28;19941;-82
2022/04/03 06:37:36;;;;;;;;;;;;;;;;;;5003883;28;19949;-82
2022/04/03 06:40:02;;;;;;;;;;;;;;;;;;5012568;28;19979;-81
2022/04/03 06:42:28;;;;;;;;;;;;;;;;;;4990175;28;19941;-82
2022/04/03 06:44:55;;;;;;;;;;;;;;;;;;5015142;28;19967;-81
2022/04/03 06:47:21;;;;;;;;;;;;;;;;;;5008668;28;19956;-82
2022/04/03 06:49:47;;;;;;;;;;;;;;;;;;5005190;28;20417;-81
2022/04/03 06:52:13;;;;;;;;;;;;;;;;;;5018170;28;19963;-82
2022/04/03 06:54:39;;;;;;;;;;;;;;;;;;5013469;28;20103;-82
2022/04/03 06:57:06;;;;;;;;;;;;;;;;;;5006088;28;19956;-82
2022/04/03 06:59:32;;;;;;;;;;;;;;;;;;5009538;28;20605;-82
2022/04/03 07:01:58;;;;;;;;;;;;;;;;;;5017257;28;19963;-81
2022/04/03 07:04:24;;;;;;;;;;;;;;;;;;5014070;28;20417;-82
2022/04/03 07:06:51;;;;;;;;;;;;;;;;;;5003617;28;19948;-83
2022/04/03 07:09:19;;;;;;;;;;;;;;;;;;5011754;28;19913;-82
2022/04/03 07:11:46;;;;;;;;;;;;;;;;;;4983841;28;19949;-83
2022/04/03 07:14:12;;;;;;;;;;;;;;;;;;5001573;28;19913;-82
2022/04/03 07:16:39;;;;;;;;;;;;;;;;;;5006957;28;19964;-82
2022/04/03 07:19:05;;;;;;;;;;;;;;;;;;4998752;28;19999;-81
2022/04/03 07:21:32;;;;;;;;;;;;;;;;;;5003944;28;19956;-83
2022/04/03 07:23:58;;;;;;;;;;;;;;;;;;5017071;28;19967;-82
2022/04/03 07:26:24;;;;;;;;;;;;;;;;;;5000472;28;19963;-82
2022/04/03 07:28:51;;;;;;;;;;;;;;;;;;5001510;28;19945;-82
2022/04/03 07:31:17;;;;;;;;;;;;;;;;;;5017320;28;19957;-82
2022/04/03 07:33:43;;;;;;;;;;;;;;;;;;5017049;28;19971;-82
2022/04/03 07:36:09;;;;;;;;;;;;;;;;;;5018796;28;19960;-82
2022/04/03 07:38:35;;;;;;;;;;;;;;;;;;5019255;28;20298;-82
2022/04/03 07:41:02;;;;;;;;;;;;;;;;;;4998917;28;19921;-82
2022/04/03 07:43:28;;;;;;;;;;;;;;;;;;5012402;28;20499;-83
2022/04/03 07:45:55;;;;;;;;;;;;;;;;;;4994574;28;19949;-82
2022/04/03 07:48:21;;;;;;;;;;;;;;;;;;4995699;28;19949;-83
2022/04/03 07:50:47;;;;;;;;;;;;;;;;;;5009249;28;19972;-81
2022/04/03 07:53:13;;;;;;;;;;;;;;;;;;5014314;28;19953;-82
2022/04/03 07:55:39;;;;;;;;;;;;;;;;;;5013435;28;19955;-82
2022/04/03 07:58:06;;;;;;;;;;;;;;;;;;5002464;28;19981;-83
2022/04/03 08:00:33;;;;;;;;;;;;;;;;;;5012211;28;19952;-83
2022/04/03 08:02:59;;;;;;;;;;;;;;;;;;5004024;28;19968;-83
2022/04/03 08:05:25;;;;;;;;;;;;;;;;;;5010999;28;19948;-83
2022/04/03 08:07:51;;;;;;;;;;;;;;;;;;5023062;28;20425;-83
2022/04/03 08:10:18;;;;;;;;;;;;;;;;;;5017118;28;19961;-83
2022/04/03 08:12:44;;;;;;;;;;;;;;;;;;5024500;28;19917;-82
2022/04/03 08:15:10;;;;;;;;;;;;;;;;;;5017289;28;19960;-82
2022/04/03 08:17:38;;;;;;;;;;;;;;;;;;5013659;28;20358;-83
2022/04/03 08:20:04;;;;;;;;;;;;;;;;;;5021800;28;20407;-83
2022/04/03 08:22:30;;;;;;;;;;;;;;;;;;5013225;28;19955;-83
2022/04/03 08:24:56;;;;;;;;;;;;;;;;;;5005691;28;20445;-83
2022/04/03 08:27:23;;;;;;;;;;;;;;;;;;4998248;28;19957;-83
2022/04/03 08:29:49;;;;;;;;;;;;;;;;;;5005614;28;19965;-83
2022/04/03 08:32:15;;;;;;;;;;;;;;;;;;5011983;28;19953;-83
2022/04/03 08:34:41;;;;;;;;;;;;;;;;;;5011519;28;19948;-83
2022/04/03 08:37:08;;;;;;;;;;;;;;;;;;5018966;28;19956;-83
2022/04/03 08:39:34;;;;;;;;;;;;;;;;;;5026137;28;19960;-83
2022/04/03 08:42:00;;;;;;;;;;;;;;;;;;5013381;28;19967;-83
2022/04/03 08:44:27;;;;;;;;;;;;;;;;;;5013678;28;20377;-82
2022/04/03 08:46:53;;;;;;;;;;;;;;;;;;5002471;28;20020;-82
2022/04/03 08:49:20;;;;;;;;;;;;;;;;;;4991323;28;19914;-83
2022/04/03 08:51:46;;;;;;;;;;;;;;;;;;5021298;28;19949;-83
2022/04/03 08:54:12;;;;;;;;;;;;;;;;;;5011292;28;20339;-83
2022/04/03 08:56:38;;;;;;;;;;;;;;;;;;5012654;28;20350;-83
2022/04/03 08:59:05;;;;;;;;;;;;;;;;;;5010877;28;19967;-83
2022/04/03 09:01:31;;;;;;;;;;;;;;;;;;5000798;28;20378;-83
2022/04/03 09:03:57;;;;;;;;;;;;;;;;;;5004214;28;19953;-82
2022/04/03 09:06:23;;;;;;;;;;;;;;;;;;5005382;28;19953;-84
2022/04/03 09:08:49;;;;;;;;;;;;;;;;;;5001711;28;19949;-84
2022/04/03 09:11:16;;;;;;;;;;;;;;;;;;5002520;28;19961;-83
2022/04/03 09:13:42;;;;;;;;;;;;;;;;;;5001093;28;20060;-83
2022/04/03 09:16:08;;;;;;;;;;;;;;;;;;4991728;28;19965;-83
2022/04/03 09:18:34;;;;;;;;;;;;;;;;;;5020145;28;19960;-83
2022/04/03 09:21:00;;;;;;;;;;;;;;;;;;5018248;28;19960;-83
2022/04/03 09:23:27;;;;;;;;;;;;;;;;;;5027081;28;19976;-84
2022/04/03 09:25:53;;;;;;;;;;;;;;;;;;4984249;28;19966;-83
2022/04/03 09:28:19;;;;;;;;;;;;;;;;;;4991568;28;19945;-84
2022/04/03 09:30:45;;;;;;;;;;;;;;;;;;5018494;28;19957;-84
2022/04/03 09:33:11;;;;;;;;;;;;;;;;;;5005350;28;19917;-84
2022/04/03 09:35:38;;;;;;;;;;;;;;;;;;5019720;28;19952;-84
2022/04/03 09:38:04;;;;;;;;;;;;;;;;;;5021078;28;19953;-84
2022/04/03 09:40:30;;;;;;;;;;;;;;;;;;5009553;28;19953;-83
2022/04/03 09:42:56;;;;;;;;;;;;;;;;;;4990618;28;19941;-83
2022/04/03 09:45:22;;;;;;;;;;;;;;;;;;5014756;28;19952;-84
2022/04/03 09:47:49;;;;;;;;;;;;;;;;;;4997186;28;20001;-84
2022/04/03 09:50:15;;;;;;;;;;;;;;;;;;5016490;28;20329;-82
2022/04/03 09:52:41;;;;;;;;;;;;;;;;;;5009838;28;20266;-83
2022/04/03 09:55:08;;;;;;;;;;;;;;;;;;5009396;28;19969;-83
2022/04/03 09:57:34;;;;;;;;;;;;;;;;;;5016446;28;20400;-83
2022/04/03 10:00:00;;;;;;;;;;;;;;;;;;5010005;28;19945;-83
2022/04/03 10:02:26;;;;;;;;;;;;;;;;;;5011038;28;20355;-83
2022/04/03 10:04:52;;;;;;;;;;;;;;;;;;5001228;28;19948;-84
2022/04/03 10:07:24;;;;;;;;;;;;;;;;;;5011215;28;20008;-83
2022/04/03 10:09:50;;;;;;;;;;;;;;;;;;5010561;28;19964;-85
2022/04/03 10:12:16;;;;;;;;;;;;;;;;;;5013098;28;19972;-82
2022/04/03 10:14:43;;;;;;;;;;;;;;;;;;4997587;28;19952;-82
2022/04/03 10:17:09;;;;;;;;;;;;;;;;;;5012239;28;19960;-83
2022/04/03 10:19:35;;;;;;;;;;;;;;;;;;5002403;28;19956;-83
2022/04/03 10:22:01;;;;;;;;;;;;;;;;;;5019851;28;20001;-82
2022/04/03 10:24:29;;;;;;;;;;;;;;;;;;5023443;28;19952;-82
2022/04/03 10:26:55;;;;;;;;;;;;;;;;;;5020398;28;19949;-82
2022/04/03 10:29:24;;;;;;;;;;;;;;;;;;5004788;28;19964;-82
2022/04/03 10:31:51;;;;;;;;;;;;;;;;;;5004146;28;20392;-83
2022/04/03 10:34:17;;;;;;;;;;;;;;;;;;5006117;28;19964;-83
2022/04/03 10:36:43;;;;;;;;;;;;;;;;;;5013071;28;20370;-84
2022/04/03 10:39:09;;;;;;;;;;;;;;;;;;5016815;28;19949;-84
2022/04/03 10:41:35;;;;;;;;;;;;;;;;;;5008289;28;20003;-85
2022/04/03 10:44:02;;;;;;;;;;;;;;;;;;5009087;28;19963;-84
2022/04/03 10:46:28;;;;;;;;;;;;;;;;;;5028737;28;19928;-84
2022/04/03 10:48:54;;;;;;;;;;;;;;;;;;5018291;28;19920;-83
2022/04/03 10:51:20;;;;;;;;;;;;;;;;;;5013392;28;19972;-84
2022/04/03 10:53:47;;;;;;;;;;;;;;;;;;5010014;28;19941;-84
2022/04/03 10:56:13;;;;;;;;;;;;;;;;;;5012793;28;20299;-84
2022/04/03 10:58:39;;;;;;;;;;;;;;;;;;5019424;28;19956;-85
2022/04/03 11:01:05;;;;;;;;;;;;;;;;;;5009072;28;19941;-85
2022/04/03 11:03:32;;;;;;;;;;;;;;;;;;4998845;28;20448;-85
2022/04/03 11:05:58;;;;;;;;;;;;;;;;;;5009669;28;19981;-83
2022/04/03 11:08:24;;;;;;;;;;;;;;;;;;5025059;28;19957;-83
2022/04/03 11:10:56;;;;;;;;;;;;;;;;;;5018293;28;19968;-84
2022/04/03 11:13:23;;;;;;;;;;;;;;;;;;5012328;28;19960;-83
2022/04/03 11:15:50;;;;;;;;;;;;;;;;;;5020531;28;19953;-83
2022/04/03 11:18:16;;;;;;;;;;;;;;;;;;5013232;28;19913;-83
2022/04/03 11:20:42;;;;;;;;;;;;;;;;;;5015466;28;19921;-83
2022/04/03 11:23:09;;;;;;;;;;;;;;;;;;5017686;28;19964;-84
2022/04/03 11:25:35;;;;;;;;;;;;;;;;;;5033170;28;20024;-84
2022/04/03 11:28:01;;;;;;;;;;;;;;;;;;5018928;28;19921;-83
2022/04/03 11:30:27;;;;;;;;;;;;;;;;;;5019855;28;19945;-83
2022/04/03 11:32:53;;;;;;;;;;;;;;;;;;5006575;28;19984;-84
2022/04/03 11:35:20;;;;;;;;;;;;;;;;;;5012429;28;19964;-83
2022/04/03 11:37:46;;;;;;;;;;;;;;;;;;5012157;28;19950;-83
2022/04/03 11:40:12;;;;;;;;;;;;;;;;;;4995153;28;20031;-83
2022/04/03 11:42:39;;;;;;;;;;;;;;;;;;5013126;28;20501;-82
2022/04/03 11:45:05;;;;;;;;;;;;;;;;;;5003605;28;19975;-82
2022/04/03 11:47:31;;;;;;;;;;;;;;;;;;5003438;28;20369;-82
2022/04/03 11:49:57;;;;;;;;;;;;;;;;;;4999782;28;20048;-82
2022/04/03 11:52:23;;;;;;;;;;;;;;;;;;4995387;28;20014;-82
2022/04/03 11:54:50;;;;;;;;;;;;;;;;;;4999703;28;19963;-83
2022/04/03 11:57:16;;;;;;;;;;;;;;;;;;5010696;28;19957;-82
2022/04/03 11:59:43;;;;;;;;;;;;;;;;;;4996269;28;19949;-83
2022/04/03 12:02:09;;;;;;;;;;;;;;;;;;5004813;28;19949;-83
2022/04/03 12:04:35;;;;;;;;;;;;;;;;;;4994362;28;19954;-82
2022/04/03 12:07:01;;;;;;;;;;;;;;;;;;4999711;28;19956;-82
2022/04/03 12:09:27;;;;;;;;;;;;;;;;;;5007373;28;20704;-83
2022/04/03 12:11:54;;;;;;;;;;;;;;;;;;4996043;28;19952;-82
2022/04/03 12:14:20;;;;;;;;;;;;;;;;;;4997245;28;19957;-82
2022/04/03 12:16:46;;;;;;;;;;;;;;;;;;4989873;28;19969;-82
2022/04/03 12:19:15;;;;;;;;;;;;;;;;;;4998310;28;19953;-82
2022/04/03 12:21:41;;;;;;;;;;;;;;;;;;5003221;28;20464;-83
2022/04/03 12:24:07;;;;;;;;;;;;;;;;;;5001684;28;20059;-81
2022/04/03 12:26:33;;;;;;;;;;;;;;;;;;4994650;28;20069;-81
2022/04/03 12:29:00;;;;;;;;;;;;;;;;;;5001273;28;20003;-82
2022/04/03 12:31:27;;;;;;;;;;;;;;;;;;4998170;28;19988;-81
2022/04/03 12:33:54;;;;;;;;;;;;;;;;;;4997503;28;19963;-81
2022/04/03 12:36:20;;;;;;;;;;;;;;;;;;5000051;28;20400;-81
2022/04/03 12:38:46;;;;;;;;;;;;;;;;;;5008595;28;19922;-82
2022/04/03 12:41:12;;;;;;;;;;;;;;;;;;5008564;28;19949;-82
2022/04/03 12:43:39;;;;;;;;;;;;;;;;;;5014008;28;20029;-82
2022/04/03 12:46:05;;;;;;;;;;;;;;;;;;5016787;28;19948;-81
2022/04/03 12:48:31;;;;;;;;;;;;;;;;;;5000041;28;19973;-82
2022/04/03 12:50:57;;;;;;;;;;;;;;;;;;5012324;28;19957;-82
2022/04/03 12:53:25;;;;;;;;;;;;;;;;;;4992468;28;20449;-82
2022/04/03 12:55:51;;;;;;;;;;;;;;;;;;5013293;28;19941;-82
2022/04/03 12:58:27;;;;;;;;;;;;;;;;;;5008931;28;19913;-82
2022/04/03 13:00:54;;;;;;;;;;;;;;;;;;5008183;28;20432;-81
2022/04/03 13:03:20;;;;;;;;;;;;;;;;;;5000403;28;19945;-82
2022/04/03 13:05:46;;;;;;;;;;;;;;;;;;5013790;28;20000;-82
2022/04/03 13:08:12;;;;;;;;;;;;;;;;;;4993856;28;20667;-82
2022/04/03 13:10:39;;;;;;;;;;;;;;;;;;5013999;28;19979;-81
2022/04/03 13:13:05;;;;;;;;;;;;;;;;;;5016229;28;20311;-81
2022/04/03 13:15:31;;;;;;;;;;;;;;;;;;5013423;28;19914;-81
2022/04/03 13:17:57;;;;;;;;;;;;;;;;;;5029323;28;19941;-80
2022/04/03 13:20:24;;;;;;;;;;;;;;;;;;5022754;28;19981;-81
2022/04/03 13:22:50;;;;;;;;;;;;;;;;;;5032703;28;19914;-81
2022/04/03 13:25:18;;;;;;;;;;;;;;;;;;5026182;28;20394;-82
2022/04/03 13:27:44;;;;;;;;;;;;;;;;;;5019529;28;19996;-80
2022/04/03 13:30:10;;;;;;;;;;;;;;;;;;5020829;28;19925;-80
2022/04/03 13:32:37;;;;;;;;;;;;;;;;;;5022011;28;20377;-81
2022/04/03 13:35:03;;;;;;;;;;;;;;;;;;5023306;28;19972;-79
2022/04/03 13:37:29;;;;;;;;;;;;;;;;;;5011624;28;20369;-80
2022/04/03 13:39:55;;;;;;;;;;;;;;;;;;5008166;28;20006;-79
2022/04/03 13:42:22;;;;;;;;;;;;;;;;;;5005182;28;19968;-80
2022/04/03 13:44:48;;;;;;;;;;;;;;;;;;5020623;28;19960;-78
2022/04/03 13:47:14;;;;;;;;;;;;;;;;;;5017278;28;19914;-79
2022/04/03 13:49:40;;;;;;;;;;;;;;;;;;5009370;28;19964;-80
2022/04/03 13:52:07;;;;;;;;;;;;;;;;;;5021509;28;19990;-79
2022/04/03 13:54:33;;;;;;;;;;;;;;;;;;5022268;28;19957;-79
2022/04/03 13:56:59;;;;;;;;;;;;;;;;;;5013369;28;19953;-79
2022/04/03 13:59:26;;;;;;;;;;;;;;;;;;5016816;28;19948;-79
2022/04/03 14:01:52;;;;;;;;;;;;;;;;;;5010532;28;19949;-79
2022/04/03 14:04:19;;;;;;;;;;;;;;;;;;5000598;28;20605;-79
2022/04/03 14:06:45;;;;;;;;;;;;;;;;;;5006914;28;20339;-79
2022/04/03 14:09:11;;;;;;;;;;;;;;;;;;5020289;28;19949;-80
2022/04/03 14:11:37;;;;;;;;;;;;;;;;;;5002895;28;19957;-79
2022/04/03 14:14:04;;;;;;;;;;;;;;;;;;5019576;28;19964;-81
2022/04/03 14:16:30;;;;;;;;;;;;;;;;;;5013780;28;19957;-80
2022/04/03 14:18:56;;;;;;;;;;;;;;;;;;5021779;28;19941;-80
2022/04/03 14:21:27;;;;;;;;;;;;;;;;;;5014908;28;19952;-80
2022/04/03 14:23:53;;;;;;;;;;;;;;;;;;5017197;28;20484;-80
2022/04/03 14:26:19;;;;;;;;;;;;;;;;;;5012719;28;19929;-81
2022/04/03 14:28:46;;;;;;;;;;;;;;;;;;5017119;28;20018;-80
2022/04/03 14:31:12;;;;;;;;;;;;;;;;;;5001325;28;19953;-80
2022/04/03 14:33:38;;;;;;;;;;;;;;;;;;5002357;28;20004;-80
2022/04/03 14:36:06;;;;;;;;;;;;;;;;;;5007278;28;19972;-79
2022/04/03 14:38:32;;;;;;;;;;;;;;;;;;5010491;28;19953;-81
2022/04/03 14:40:58;;;;;;;;;;;;;;;;;;5018826;28;19914;-81
2022/04/03 14:43:24;;;;;;;;;;;;;;;;;;5026400;28;19913;-81
2022/04/03 14:45:50;;;;;;;;;;;;;;;;;;5024218;28;19914;-81
2022/04/03 14:48:17;;;;;;;;;;;;;;;;;;5001995;28;19918;-81
2022/04/03 14:50:44;;;;;;;;;;;;;;;;;;5019753;28;19928;-81
2022/04/03 14:53:11;;;;;;;;;;;;;;;;;;5029209;28;19914;-81
2022/04/03 14:55:37;;;;;;;;;;;;;;;;;;5012238;28;19914;-81
2022/04/03 14:58:04;;;;;;;;;;;;;;;;;;5028827;28;20305;-81
2022/04/03 15:00:30;;;;;;;;;;;;;;;;;;5024688;28;19921;-81
2022/04/03 15:02:56;;;;;;;;;;;;;;;;;;5027292;28;19913;-80
2022/04/03 15:05:22;;;;;;;;;;;;;;;;;;5014685;28;19913;-80
2022/04/03 15:07:51;;;;;;;;;;;;;;;;;;5026948;28;19941;-81
2022/04/03 15:10:22;;;;;;;;;;;;;;;;;;5032382;28;19914;-81
2022/04/03 15:12:49;;;;;;;;;;;;;;;;;;5012910;28;20500;-81
2022/04/03 15:15:15;;;;;;;;;;;;;;;;;;5004600;28;20428;-80
2022/04/03 15:17:41;;;;;;;;;;;;;;;;;;5003225;28;19925;-80
2022/04/03 15:20:07;;;;;;;;;;;;;;;;;;5011842;28;19922;-81
2022/04/03 15:22:34;;;;;;;;;;;;;;;;;;5009539;28;19918;-80
2022/04/03 15:25:00;;;;;;;;;;;;;;;;;;5027045;28;19953;-80
2022/04/03 15:27:26;;;;;;;;;;;;;;;;;;5023682;28;19930;-80
2022/04/03 15:29:52;;;;;;;;;;;;;;;;;;5016356;28;19913;-80
2022/04/03 15:32:19;;;;;;;;;;;;;;;;;;5028539;28;20512;-81
2022/04/03 15:34:45;;;;;;;;;;;;;;;;;;5028255;28;19924;-80
2022/04/03 15:37:12;;;;;;;;;;;;;;;;;;5023055;28;20391;-79
2022/04/03 15:39:38;;;;;;;;;;;;;;;;;;5023982;28;19917;-80
2022/04/03 15:42:04;;;;;;;;;;;;;;;;;;5021534;28;20282;-79
2022/04/03 15:44:31;;;;;;;;;;;;;;;;;;5025648;28;20392;-79
2022/04/03 15:46:57;;;;;;;;;;;;;;;;;;5022360;28;19917;-80
2022/04/03 15:49:23;;;;;;;;;;;;;;;;;;5016132;28;19917;-81
2022/04/03 15:51:49;;;;;;;;;;;;;;;;;;5015223;28;19921;-80
2022/04/03 15:54:15;;;;;;;;;;;;;;;;;;5032367;28;19921;-80
2022/04/03 15:56:42;;;;;;;;;;;;;;;;;;5007988;28;19964;-81
2022/04/03 15:59:08;;;;;;;;;;;;;;;;;;5021695;28;19929;-81
2022/04/03 16:01:34;;;;;;;;;;;;;;;;;;5032810;28;19917;-78
2022/04/03 16:04:00;;;;;;;;;;;;;;;;;;5020326;28;19918;-77
2022/04/03 16:06:26;;;;;;;;;;;;;;;;;;5021165;28;19921;-79
2022/04/03 16:08:53;;;;;;;;;;;;;;;;;;5018708;28;19918;-78
2022/04/03 16:11:19;;;;;;;;;;;;;;;;;;5026537;28;20282;-79
2022/04/03 16:13:45;;;;;;;;;;;;;;;;;;5016214;28;20425;-79
2022/04/03 16:16:11;;;;;;;;;;;;;;;;;;4998412;28;19925;-78
2022/04/03 16:18:38;;;;;;;;;;;;;;;;;;5004452;28;20369;-78
2022/04/03 16:21:04;;;;;;;;;;;;;;;;;;4988477;28;19976;-79
2022/04/03 16:23:30;;;;;;;;;;;;;;;;;;5005045;28;19921;-79
2022/04/03 16:25:58;;;;;;;;;;;;;;;;;;5005420;28;19967;-79
2022/04/03 16:28:24;;;;;;;;;;;;;;;;;;5019014;28;20294;-80
2022/04/03 16:30:50;;;;;;;;;;;;;;;;;;4995200;28;19961;-79
2022/04/03 16:33:16;;;;;;;;;;;;;;;;;;5006326;28;19976;-79
2022/04/03 16:35:43;;;;;;;;;;;;;;;;;;5009581;28;19921;-80
2022/04/03 16:38:15;;;;;;;;;;;;;;;;;;4998699;28;19961;-79